Airfield :
LOGIN :

Register | Disclaimer

   EN    FR    IT 

 










Legend :    VFR   Marginal VFR   IFR   Intensive IFR   Very Intensive IFR
Visi :
Ceiling :
>= 8 km
>= 3000ft
5 to 8 km
1000 to 3000 ft
1500m to 5 km
500 to 1000 ft
800 to 1500m
200 to 500 ft
< 800m
< 200 ft
Symbols :   Thunderstorms  Fog  Heavy snow  Heavy precipitations  Wind > 20 kt
SIGMETs :     Misc.  Thunderstorms  Icing  Turbulence  Mountain Waves  Volcanic Ashes







- Airport Elevation : 38 ft
- IATA code : BOH
- Download approach charts


EGHH - Bournemouth

CURRENT METAR :
  • 200520Z 23016KT 200V290 9999 BKN012 BKN019 17/15 Q1012

EXPIRED METARs :
  • 200450Z VRB16G27KT 9999 BKN012 BKN020 17/15 Q1012

TAF TAF EGHH
Valid from the 20 at 06:00 until the 20 at 15:00 UTC


200525Z 2006/2015 23015KT 9999 SCT020
TEMPO 2006/2009 BKN010
PROB40
TEMPO 2006/2015 23018G28KT
ATIS : +44 1202 364 151
Met : +44 1202 364 158 (TAF)
No reported NOTAMs for that airfield.
1 SIGMET reported for the London FIR (EGTT) :
 
Severe mountain waves
EGTT SIGMET 03 VALID 200500/200900 EGRR
EGTT LONDON FIR SEV MTW FCST WI N5407 E00000 - N5409 W00252 - N5500 W00500 - N5500 W00100 - N5500 E00001 - N5407 E00000 FL030/250 MOV N 10KT WKN=



MET'MAP, your aeronautical weather chart ! - Copyright ORBIFLY December 2007 - Disclaimer

ORBIFLY MET'MAP TEAM :

Programming & Development : Alexandra Zaïnal
Concept & Development : Baudouin d'Aumeries
Co-Development & Prog : Marc-Olivier Méhu
Technical & hardware support : Manuel Goepfert

Contact : metmap@orbifly.com




SOURCES & CREDITS :

   NOAA